Historyczne dane pomiarowe

Dodano dane terminowe – wersja testowa.

Dane z okresu 1951-2019

Wersja bazy: 1.34 [2019-03-16, lista zmian], aktualizacja planowana na 2019-04-15

Dane meteo z obszaru Polski uzyskane na podstawie danych udostępnionych przez Instytut Meteorologii i Gospodarki Wodnej – Państwowy Instytut Badawczy.

 

Wybierz Datę:    

       

TemperaturaWilgotnośćWiatrCiśnienieOpadyŚniegCzas trwania zjawisk
 Stacja t tx tn tng RH VA  wxwx mslp ppp RRR   cm mm wxwxwxwxwxwxwx
1966-03-18 0.1 4.3 -1.5--- 7.7 3.7---- 0.0------------
1966-03-19 -2.2 1.7 -3.1--- 2.0 4.0---- 0.0------------
1966-03-20 -0.2 3.6 -3.2--- 6.3 9.3---- 0.0------------
1966-03-21 2.8 4.6 -0.9--- 7.0 8.3---- 1.7------------
1966-03-22 2.3 4.4 0.0--- 5.3 12.3---- 3.3------------
1966-03-23 3.2 6.3 1.6--- 7.3 3.7---- 0.3------------
1966-03-24 0.8 5.6 -0.2--- 6.3 6.0---- 3.9------------
1966-03-25 -1.3 3.4 -2.5--- 5.0 4.7---- 2.9------------
1966-03-26 -1.1 2.2 -2.8--- 4.0 4.7---- 0.7-- 3---------
1966-03-27 1.2 4.8 -4.0--- 6.7 10.3---- 4.9------------
1966-03-28 3.0 7.5 1.1--- 7.7 6.0---- 2.1------------
1966-03-29 0.5 2.6 -0.6--- 4.7 4.3---- 3.2------------
1966-03-30 0.7 2.6 -0.5--- 6.0 4.3---- 0.0-- 2---------
1966-03-31 2.6 5.4 -0.7--- 7.0 5.7---- 0.0------------
1966-04-01 3.9 9.1 2.5--- 4.3 1.7---- 0.0------------
1966-04-02 5.7 11.6 0.9--- 3.3 1.0---- 0.0------------
1966-04-03 4.7 9.7 2.7--- 4.0 1.3---- 0.0------------
1966-04-04 4.6 10.6 0.4--- 5.7 0.0---- 1.0------------
1966-04-05 7.0 13.4 0.6--- 4.0 1.3---- 1.4------------
1966-04-06 3.8 11.1 1.2--- 6.3 0.0---- 0.0------------
1966-04-07 1.7 2.6 0.7--- 8.0 1.7---- 1.2------------
1966-04-08 1.0 2.4 -0.2--- 8.0 2.7---- 0.0------------
1966-04-09 1.7 3.6 -1.1--- 8.0 1.3---- 0.2------------
1966-04-10 2.6 6.9 1.7--- 8.0 2.7---- 0.0------------
1966-04-11 0.2 3.3 0.0--- 8.0 4.0---- 2.7------------
1966-04-12 -1.3 0.4 -1.6--- 8.0 4.3---- 0.0------------
1966-04-13 -2.1 -1.0 -3.1--- 8.0 3.0---- 0.1------------
1966-04-14 -1.4 2.1 -3.6--- 8.0 2.0---- 1.9------------
1966-04-15 -1.4 0.2 -2.1--- 7.7 2.0---- 0.0------------
1966-04-16 -1.9 0.1 -2.6--- 5.3 0.7---- 0.0------------
312.4 ms

 

Źródłem pochodzenia danych jest Instytut Meteorologii i Gospodarki Wodnej – Państwowy Instytut Badawczy. Dane Instytutu Meteorologii i Gospodarki Wodnej – Państwowego Instytutu Badawczego zostały przetworzone.

Dane źródłowe można odnaleźć na stronie https://dane.imgw.pl